sensor_id;sensor_type;location;lat;lon;timestamp;P1;durP1;ratioP1;P2;durP2;ratioP2
42662;SDS011;44330;51.360;6.686;2022-08-07T00:00:57;8.57;;;2.50;;
42662;SDS011;44330;51.360;6.686;2022-08-07T00:03:23;4.47;;;2.88;;
42662;SDS011;44330;51.360;6.686;2022-08-07T00:05:50;5.63;;;2.60;;
42662;SDS011;44330;51.360;6.686;2022-08-07T00:08:17;5.80;;;3.30;;
42662;SDS011;44330;51.360;6.686;2022-08-07T00:10:43;4.47;;;3.13;;
42662;SDS011;44330;51.360;6.686;2022-08-07T00:13:09;5.40;;;3.17;;
42662;SDS011;44330;51.360;6.686;2022-08-07T00:15:34;5.93;;;3.20;;
42662;SDS011;44330;51.360;6.686;2022-08-07T00:18:00;5.22;;;3.63;;
42662;SDS011;44330;51.360;6.686;2022-08-07T00:20:25;7.93;;;3.45;;
42662;SDS011;44330;51.360;6.686;2022-08-07T00:22:51;9.20;;;4.05;;
42662;SDS011;44330;51.360;6.686;2022-08-07T00:25:16;4.60;;;2.95;;
42662;SDS011;44330;51.360;6.686;2022-08-07T00:27:42;7.45;;;3.72;;
42662;SDS011;44330;51.360;6.686;2022-08-07T00:30:08;6.38;;;3.13;;
42662;SDS011;44330;51.360;6.686;2022-08-07T00:32:34;6.47;;;3.42;;
42662;SDS011;44330;51.360;6.686;2022-08-07T00:35:00;5.00;;;3.40;;
42662;SDS011;44330;51.360;6.686;2022-08-07T00:37:25;4.88;;;3.28;;
42662;SDS011;44330;51.360;6.686;2022-08-07T00:39:51;4.72;;;3.03;;
42662;SDS011;44330;51.360;6.686;2022-08-07T00:42:20;16.23;;;4.15;;
42662;SDS011;44330;51.360;6.686;2022-08-07T00:44:46;6.07;;;3.72;;
42662;SDS011;44330;51.360;6.686;2022-08-07T00:47:11;5.93;;;3.55;;
42662;SDS011;44330;51.360;6.686;2022-08-07T00:49:37;7.45;;;3.47;;
42662;SDS011;44330;51.360;6.686;2022-08-07T00:52:06;8.35;;;3.80;;
42662;SDS011;44330;51.360;6.686;2022-08-07T00:54:33;5.53;;;3.78;;
42662;SDS011;44330;51.360;6.686;2022-08-07T00:56:59;5.13;;;3.70;;
42662;SDS011;44330;51.360;6.686;2022-08-07T00:59:24;8.27;;;3.90;;
42662;SDS011;44330;51.360;6.686;2022-08-07T01:01:50;5.22;;;3.78;;
42662;SDS011;44330;51.360;6.686;2022-08-07T01:04:16;7.35;;;3.80;;
42662;SDS011;44330;51.360;6.686;2022-08-07T01:06:43;5.97;;;3.67;;
42662;SDS011;44330;51.360;6.686;2022-08-07T01:09:09;6.75;;;4.00;;
42662;SDS011;44330;51.360;6.686;2022-08-07T01:11:35;11.15;;;3.83;;
42662;SDS011;44330;51.360;6.686;2022-08-07T01:14:01;5.50;;;3.95;;
42662;SDS011;44330;51.360;6.686;2022-08-07T01:16:27;8.38;;;4.00;;
42662;SDS011;44330;51.360;6.686;2022-08-07T01:18:53;5.13;;;3.63;;
42662;SDS011;44330;51.360;6.686;2022-08-07T01:21:19;6.72;;;3.92;;
42662;SDS011;44330;51.360;6.686;2022-08-07T01:23:48;10.63;;;4.07;;
42662;SDS011;44330;51.360;6.686;2022-08-07T01:26:15;6.57;;;3.83;;
42662;SDS011;44330;51.360;6.686;2022-08-07T01:28:42;7.65;;;4.03;;
42662;SDS011;44330;51.360;6.686;2022-08-07T01:31:09;8.23;;;4.10;;
42662;SDS011;44330;51.360;6.686;2022-08-07T01:33:35;15.88;;;4.68;;
42662;SDS011;44330;51.360;6.686;2022-08-07T01:36:01;6.28;;;4.05;;
42662;SDS011;44330;51.360;6.686;2022-08-07T01:38:29;5.38;;;4.43;;
42662;SDS011;44330;51.360;6.686;2022-08-07T01:40:56;9.55;;;3.92;;
42662;SDS011;44330;51.360;6.686;2022-08-07T01:43:24;7.22;;;4.00;;
42662;SDS011;44330;51.360;6.686;2022-08-07T01:45:50;4.55;;;3.28;;
42662;SDS011;44330;51.360;6.686;2022-08-07T01:48:17;7.55;;;4.85;;
42662;SDS011;44330;51.360;6.686;2022-08-07T01:50:44;6.28;;;3.65;;
42662;SDS011;44330;51.360;6.686;2022-08-07T01:53:14;6.03;;;3.72;;
42662;SDS011;44330;51.360;6.686;2022-08-07T01:55:46;6.70;;;3.85;;
42662;SDS011;44330;51.360;6.686;2022-08-07T01:58:17;6.10;;;4.00;;
42662;SDS011;44330;51.360;6.686;2022-08-07T02:00:45;9.57;;;3.90;;
42662;SDS011;44330;51.360;6.686;2022-08-07T02:03:26;5.95;;;4.30;;
42662;SDS011;44330;51.360;6.686;2022-08-07T02:05:54;9.00;;;4.03;;
42662;SDS011;44330;51.360;6.686;2022-08-07T02:08:26;5.47;;;3.97;;
42662;SDS011;44330;51.360;6.686;2022-08-07T02:10:54;5.65;;;3.95;;
42662;SDS011;44330;51.360;6.686;2022-08-07T02:13:23;6.05;;;3.53;;
42662;SDS011;44330;51.360;6.686;2022-08-07T02:15:52;9.15;;;4.72;;
42662;SDS011;44330;51.360;6.686;2022-08-07T02:18:20;8.60;;;3.90;;
42662;SDS011;44330;51.360;6.686;2022-08-07T02:20:48;10.57;;;4.47;;
42662;SDS011;44330;51.360;6.686;2022-08-07T02:23:16;6.10;;;4.07;;
42662;SDS011;44330;51.360;6.686;2022-08-07T02:25:42;8.02;;;4.45;;
42662;SDS011;44330;51.360;6.686;2022-08-07T02:28:09;5.32;;;4.05;;
42662;SDS011;44330;51.360;6.686;2022-08-07T02:30:36;6.28;;;4.10;;
42662;SDS011;44330;51.360;6.686;2022-08-07T02:33:03;11.52;;;4.32;;
42662;SDS011;44330;51.360;6.686;2022-08-07T02:35:32;7.20;;;4.15;;
42662;SDS011;44330;51.360;6.686;2022-08-07T02:38:00;5.30;;;3.47;;
42662;SDS011;44330;51.360;6.686;2022-08-07T02:40:28;9.25;;;5.30;;
42662;SDS011;44330;51.360;6.686;2022-08-07T02:42:55;10.15;;;5.00;;
42662;SDS011;44330;51.360;6.686;2022-08-07T02:45:23;8.25;;;4.57;;
42662;SDS011;44330;51.360;6.686;2022-08-07T02:47:51;7.07;;;4.65;;
42662;SDS011;44330;51.360;6.686;2022-08-07T02:50:17;8.32;;;4.88;;
42662;SDS011;44330;51.360;6.686;2022-08-07T02:52:53;7.57;;;4.60;;
42662;SDS011;44330;51.360;6.686;2022-08-07T02:55:28;7.20;;;4.55;;
42662;SDS011;44330;51.360;6.686;2022-08-07T02:57:57;8.52;;;4.97;;
42662;SDS011;44330;51.360;6.686;2022-08-07T03:00:27;8.77;;;4.43;;
42662;SDS011;44330;51.360;6.686;2022-08-07T03:02:54;7.95;;;4.57;;
42662;SDS011;44330;51.360;6.686;2022-08-07T03:05:20;9.57;;;4.60;;
42662;SDS011;44330;51.360;6.686;2022-08-07T03:07:47;6.65;;;4.30;;
42662;SDS011;44330;51.360;6.686;2022-08-07T03:10:13;8.45;;;4.88;;
42662;SDS011;44330;51.360;6.686;2022-08-07T03:12:42;7.93;;;5.03;;
42662;SDS011;44330;51.360;6.686;2022-08-07T03:15:10;7.03;;;4.55;;
42662;SDS011;44330;51.360;6.686;2022-08-07T03:17:36;10.45;;;4.85;;
42662;SDS011;44330;51.360;6.686;2022-08-07T03:20:03;7.30;;;4.90;;
42662;SDS011;44330;51.360;6.686;2022-08-07T03:22:29;8.23;;;4.78;;
42662;SDS011;44330;51.360;6.686;2022-08-07T03:24:56;5.95;;;4.55;;
42662;SDS011;44330;51.360;6.686;2022-08-07T03:27:24;8.82;;;5.38;;
42662;SDS011;44330;51.360;6.686;2022-08-07T03:29:51;8.23;;;5.30;;
42662;SDS011;44330;51.360;6.686;2022-08-07T03:32:21;8.75;;;5.10;;
42662;SDS011;44330;51.360;6.686;2022-08-07T03:34:50;9.35;;;4.57;;
42662;SDS011;44330;51.360;6.686;2022-08-07T03:37:20;8.15;;;4.57;;
42662;SDS011;44330;51.360;6.686;2022-08-07T03:39:46;7.43;;;5.18;;
42662;SDS011;44330;51.360;6.686;2022-08-07T03:42:13;7.03;;;4.80;;
42662;SDS011;44330;51.360;6.686;2022-08-07T03:44:41;9.32;;;5.40;;
42662;SDS011;44330;51.360;6.686;2022-08-07T03:47:07;8.55;;;5.22;;
42662;SDS011;44330;51.360;6.686;2022-08-07T03:49:34;9.77;;;5.10;;
42662;SDS011;44330;51.360;6.686;2022-08-07T03:52:00;10.35;;;5.00;;
42662;SDS011;44330;51.360;6.686;2022-08-07T03:54:27;9.07;;;5.10;;
42662;SDS011;44330;51.360;6.686;2022-08-07T03:56:53;10.88;;;5.28;;
42662;SDS011;44330;51.360;6.686;2022-08-07T03:59:20;8.32;;;5.40;;
42662;SDS011;44330;51.360;6.686;2022-08-07T04:01:46;10.75;;;5.18;;
42662;SDS011;44330;51.360;6.686;2022-08-07T04:04:14;10.85;;;5.70;;
42662;SDS011;44330;51.360;6.686;2022-08-07T04:06:41;16.90;;;5.53;;
42662;SDS011;44330;51.360;6.686;2022-08-07T04:09:08;9.18;;;5.32;;
42662;SDS011;44330;51.360;6.686;2022-08-07T04:11:35;9.18;;;5.13;;
42662;SDS011;44330;51.360;6.686;2022-08-07T04:14:02;11.32;;;5.30;;
42662;SDS011;44330;51.360;6.686;2022-08-07T04:16:28;7.53;;;4.75;;
42662;SDS011;44330;51.360;6.686;2022-08-07T04:18:54;8.68;;;5.63;;
42662;SDS011;44330;51.360;6.686;2022-08-07T04:21:20;7.05;;;5.15;;
42662;SDS011;44330;51.360;6.686;2022-08-07T04:23:46;7.38;;;5.10;;
42662;SDS011;44330;51.360;6.686;2022-08-07T04:26:12;9.15;;;5.70;;
42662;SDS011;44330;51.360;6.686;2022-08-07T04:28:39;6.85;;;4.72;;
42662;SDS011;44330;51.360;6.686;2022-08-07T04:31:05;7.93;;;5.20;;
42662;SDS011;44330;51.360;6.686;2022-08-07T04:33:32;9.13;;;5.22;;
42662;SDS011;44330;51.360;6.686;2022-08-07T04:36:00;7.55;;;5.00;;
42662;SDS011;44330;51.360;6.686;2022-08-07T04:38:26;8.50;;;5.13;;
42662;SDS011;44330;51.360;6.686;2022-08-07T04:40:51;7.70;;;5.03;;
42662;SDS011;44330;51.360;6.686;2022-08-07T04:43:19;7.45;;;5.45;;
42662;SDS011;44330;51.360;6.686;2022-08-07T04:45:52;10.13;;;5.80;;
42662;SDS011;44330;51.360;6.686;2022-08-07T04:48:35;7.55;;;5.60;;
42662;SDS011;44330;51.360;6.686;2022-08-07T04:51:23;11.52;;;6.78;;
42662;SDS011;44330;51.360;6.686;2022-08-07T04:56:41;9.80;;;6.80;;
42662;SDS011;44330;51.360;6.686;2022-08-07T05:01:52;12.60;;;7.05;;
42662;SDS011;44330;51.360;6.686;2022-08-07T05:07:10;11.05;;;6.30;;
42662;SDS011;44330;51.360;6.686;2022-08-07T05:12:41;12.88;;;7.03;;
42662;SDS011;44330;51.360;6.686;2022-08-07T05:15:13;12.23;;;7.25;;
42662;SDS011;44330;51.360;6.686;2022-08-07T05:17:44;10.15;;;6.95;;
42662;SDS011;44330;51.360;6.686;2022-08-07T05:20:13;11.43;;;7.85;;
42662;SDS011;44330;51.360;6.686;2022-08-07T05:22:42;10.93;;;7.15;;
42662;SDS011;44330;51.360;6.686;2022-08-07T05:25:10;9.20;;;6.82;;
42662;SDS011;44330;51.360;6.686;2022-08-07T05:27:38;10.43;;;6.88;;
42662;SDS011;44330;51.360;6.686;2022-08-07T05:30:06;11.43;;;6.78;;
42662;SDS011;44330;51.360;6.686;2022-08-07T05:32:31;15.38;;;7.03;;
42662;SDS011;44330;51.360;6.686;2022-08-07T05:34:57;10.20;;;6.97;;
42662;SDS011;44330;51.360;6.686;2022-08-07T05:37:25;10.98;;;6.93;;
42662;SDS011;44330;51.360;6.686;2022-08-07T05:39:51;9.60;;;7.07;;
42662;SDS011;44330;51.360;6.686;2022-08-07T05:42:17;10.20;;;7.25;;
42662;SDS011;44330;51.360;6.686;2022-08-07T05:44:43;9.35;;;6.53;;
42662;SDS011;44330;51.360;6.686;2022-08-07T05:47:09;12.45;;;7.28;;
42662;SDS011;44330;51.360;6.686;2022-08-07T05:49:35;9.98;;;6.55;;
42662;SDS011;44330;51.360;6.686;2022-08-07T05:52:01;10.10;;;6.63;;
42662;SDS011;44330;51.360;6.686;2022-08-07T05:54:28;9.02;;;6.38;;
42662;SDS011;44330;51.360;6.686;2022-08-07T05:56:54;14.07;;;6.90;;
42662;SDS011;44330;51.360;6.686;2022-08-07T05:59:21;13.73;;;6.50;;
42662;SDS011;44330;51.360;6.686;2022-08-07T06:01:48;19.67;;;7.70;;
42662;SDS011;44330;51.360;6.686;2022-08-07T06:04:15;9.52;;;6.00;;
42662;SDS011;44330;51.360;6.686;2022-08-07T06:09:09;12.10;;;6.25;;
42662;SDS011;44330;51.360;6.686;2022-08-07T06:11:35;12.10;;;6.70;;
42662;SDS011;44330;51.360;6.686;2022-08-07T06:14:02;8.45;;;5.53;;
42662;SDS011;44330;51.360;6.686;2022-08-07T06:16:30;9.13;;;5.18;;
42662;SDS011;44330;51.360;6.686;2022-08-07T06:18:58;10.50;;;5.80;;
42662;SDS011;44330;51.360;6.686;2022-08-07T06:21:25;7.32;;;5.07;;
42662;SDS011;44330;51.360;6.686;2022-08-07T06:23:52;11.43;;;5.20;;
42662;SDS011;44330;51.360;6.686;2022-08-07T06:26:17;7.75;;;5.05;;
42662;SDS011;44330;51.360;6.686;2022-08-07T06:29:01;9.68;;;5.07;;
42662;SDS011;44330;51.360;6.686;2022-08-07T06:31:28;12.05;;;5.22;;
42662;SDS011;44330;51.360;6.686;2022-08-07T06:33:53;6.88;;;4.25;;
42662;SDS011;44330;51.360;6.686;2022-08-07T06:36:19;8.95;;;4.60;;
42662;SDS011;44330;51.360;6.686;2022-08-07T06:38:44;9.65;;;4.75;;
42662;SDS011;44330;51.360;6.686;2022-08-07T06:41:22;6.38;;;4.22;;
42662;SDS011;44330;51.360;6.686;2022-08-07T06:43:53;9.13;;;4.00;;
42662;SDS011;44330;51.360;6.686;2022-08-07T06:46:21;6.43;;;4.05;;
42662;SDS011;44330;51.360;6.686;2022-08-07T06:48:46;8.10;;;3.47;;
42662;SDS011;44330;51.360;6.686;2022-08-07T06:51:19;7.05;;;3.58;;
42662;SDS011;44330;51.360;6.686;2022-08-07T06:53:48;5.45;;;3.50;;
42662;SDS011;44330;51.360;6.686;2022-08-07T06:56:15;9.55;;;3.88;;
42662;SDS011;44330;51.360;6.686;2022-08-07T06:58:42;5.75;;;3.20;;
42662;SDS011;44330;51.360;6.686;2022-08-07T07:01:11;13.07;;;4.90;;
42662;SDS011;44330;51.360;6.686;2022-08-07T07:03:38;6.63;;;4.03;;
42662;SDS011;44330;51.360;6.686;2022-08-07T07:06:06;7.55;;;3.97;;
42662;SDS011;44330;51.360;6.686;2022-08-07T07:08:33;7.70;;;4.10;;
42662;SDS011;44330;51.360;6.686;2022-08-07T07:10:59;8.48;;;4.00;;
42662;SDS011;44330;51.360;6.686;2022-08-07T07:13:28;7.50;;;3.80;;
42662;SDS011;44330;51.360;6.686;2022-08-07T07:15:59;7.68;;;3.40;;
42662;SDS011;44330;51.360;6.686;2022-08-07T07:18:30;6.30;;;3.10;;
42662;SDS011;44330;51.360;6.686;2022-08-07T07:21:09;6.90;;;3.53;;
42662;SDS011;44330;51.360;6.686;2022-08-07T07:23:39;6.70;;;3.33;;
42662;SDS011;44330;51.360;6.686;2022-08-07T07:26:06;5.63;;;3.35;;
42662;SDS011;44330;51.360;6.686;2022-08-07T07:28:36;6.35;;;3.70;;
42662;SDS011;44330;51.360;6.686;2022-08-07T07:33:53;11.35;;;3.65;;
42662;SDS011;44330;51.360;6.686;2022-08-07T07:36:22;4.38;;;2.63;;
42662;SDS011;44330;51.360;6.686;2022-08-07T07:38:48;6.88;;;2.95;;
42662;SDS011;44330;51.360;6.686;2022-08-07T07:41:15;8.15;;;3.22;;
42662;SDS011;44330;51.360;6.686;2022-08-07T07:43:42;7.60;;;3.33;;
42662;SDS011;44330;51.360;6.686;2022-08-07T07:46:10;13.77;;;3.55;;
42662;SDS011;44330;51.360;6.686;2022-08-07T07:48:38;6.65;;;3.28;;
42662;SDS011;44330;51.360;6.686;2022-08-07T07:51:05;5.90;;;2.92;;
42662;SDS011;44330;51.360;6.686;2022-08-07T07:53:31;8.73;;;3.80;;
42662;SDS011;44330;51.360;6.686;2022-08-07T07:56:01;7.75;;;3.83;;
42662;SDS011;44330;51.360;6.686;2022-08-07T07:58:29;6.60;;;3.30;;
42662;SDS011;44330;51.360;6.686;2022-08-07T08:00:57;11.50;;;3.78;;
42662;SDS011;44330;51.360;6.686;2022-08-07T08:03:24;13.23;;;4.00;;
42662;SDS011;44330;51.360;6.686;2022-08-07T08:05:52;12.02;;;4.65;;
42662;SDS011;44330;51.360;6.686;2022-08-07T08:08:18;10.85;;;4.30;;
42662;SDS011;44330;51.360;6.686;2022-08-07T08:10:45;14.45;;;4.85;;
42662;SDS011;44330;51.360;6.686;2022-08-07T08:13:10;9.82;;;4.63;;
42662;SDS011;44330;51.360;6.686;2022-08-07T08:15:38;11.45;;;4.93;;
42662;SDS011;44330;51.360;6.686;2022-08-07T08:18:07;11.30;;;5.13;;
42662;SDS011;44330;51.360;6.686;2022-08-07T08:20:38;10.90;;;3.58;;
42662;SDS011;44330;51.360;6.686;2022-08-07T08:23:07;10.43;;;3.58;;
42662;SDS011;44330;51.360;6.686;2022-08-07T08:25:53;9.43;;;4.70;;
42662;SDS011;44330;51.360;6.686;2022-08-07T08:28:41;16.58;;;5.00;;
42662;SDS011;44330;51.360;6.686;2022-08-07T08:31:10;12.55;;;5.13;;
42662;SDS011;44330;51.360;6.686;2022-08-07T08:33:39;8.65;;;3.65;;
42662;SDS011;44330;51.360;6.686;2022-08-07T08:36:06;9.43;;;4.30;;
42662;SDS011;44330;51.360;6.686;2022-08-07T08:38:38;10.13;;;4.30;;
42662;SDS011;44330;51.360;6.686;2022-08-07T08:43:36;7.13;;;3.63;;
42662;SDS011;44330;51.360;6.686;2022-08-07T08:46:20;9.77;;;4.15;;
42662;SDS011;44330;51.360;6.686;2022-08-07T08:48:54;12.68;;;4.30;;
42662;SDS011;44330;51.360;6.686;2022-08-07T08:51:38;8.18;;;3.45;;
42662;SDS011;44330;51.360;6.686;2022-08-07T08:54:10;10.82;;;3.40;;
42662;SDS011;44330;51.360;6.686;2022-08-07T08:56:46;5.80;;;3.35;;
42662;SDS011;44330;51.360;6.686;2022-08-07T08:59:23;5.82;;;2.97;;
42662;SDS011;44330;51.360;6.686;2022-08-07T09:02:12;8.32;;;2.33;;
42662;SDS011;44330;51.360;6.686;2022-08-07T09:10:20;2.53;;;0.60;;
42662;SDS011;44330;51.360;6.686;2022-08-07T09:24:04;0.85;;;0.70;;
42662;SDS011;44330;51.360;6.686;2022-08-07T09:29:08;2.00;;;0.50;;
42662;SDS011;44330;51.360;6.686;2022-08-07T09:31:47;2.25;;;1.42;;
42662;SDS011;44330;51.360;6.686;2022-08-07T09:34:26;2.53;;;1.33;;
42662;SDS011;44330;51.360;6.686;2022-08-07T09:37:06;1.92;;;0.80;;
42662;SDS011;44330;51.360;6.686;2022-08-07T09:40:00;0.60;;;0.60;;
42662;SDS011;44330;51.360;6.686;2022-08-07T09:45:24;0.93;;;0.60;;
42662;SDS011;44330;51.360;6.686;2022-08-07T09:48:26;5.03;;;0.70;;
42662;SDS011;44330;51.360;6.686;2022-08-07T09:54:00;1.33;;;0.80;;
42662;SDS011;44330;51.360;6.686;2022-08-07T09:56:52;0.85;;;0.50;;
42662;SDS011;44330;51.360;6.686;2022-08-07T10:16:14;2.05;;;0.50;;
42662;SDS011;44330;51.360;6.686;2022-08-07T10:22:07;1.95;;;0.63;;
42662;SDS011;44330;51.360;6.686;2022-08-07T10:30:17;0.95;;;0.40;;
42662;SDS011;44330;51.360;6.686;2022-08-07T10:33:10;0.77;;;0.65;;
42662;SDS011;44330;51.360;6.686;2022-08-07T10:35:52;0.60;;;0.40;;
42662;SDS011;44330;51.360;6.686;2022-08-07T10:44:17;1.05;;;0.50;;
42662;SDS011;44330;51.360;6.686;2022-08-07T10:49:55;1.03;;;0.70;;
42662;SDS011;44330;51.360;6.686;2022-08-07T10:55:17;1.98;;;0.50;;
42662;SDS011;44330;51.360;6.686;2022-08-07T11:01:15;0.55;;;0.50;;
42662;SDS011;44330;51.360;6.686;2022-08-07T11:03:47;1.13;;;0.60;;
42662;SDS011;44330;51.360;6.686;2022-08-07T11:06:54;0.93;;;0.60;;
42662;SDS011;44330;51.360;6.686;2022-08-07T11:09:16;0.50;;;0.50;;
42662;SDS011;44330;51.360;6.686;2022-08-07T11:11:57;2.40;;;0.60;;
42662;SDS011;44330;51.360;6.686;2022-08-07T11:14:40;2.38;;;0.68;;
42662;SDS011;44330;51.360;6.686;2022-08-07T11:17:13;0.75;;;0.60;;
42662;SDS011;44330;51.360;6.686;2022-08-07T11:19:49;0.82;;;0.40;;
42662;SDS011;44330;51.360;6.686;2022-08-07T11:22:24;0.93;;;0.60;;
42662;SDS011;44330;51.360;6.686;2022-08-07T11:24:58;1.65;;;0.63;;
42662;SDS011;44330;51.360;6.686;2022-08-07T11:30:58;2.05;;;0.50;;
42662;SDS011;44330;51.360;6.686;2022-08-07T11:33:33;2.85;;;0.70;;
42662;SDS011;44330;51.360;6.686;2022-08-07T11:44:46;2.38;;;0.68;;
42662;SDS011;44330;51.360;6.686;2022-08-07T11:52:51;1.45;;;0.70;;
42662;SDS011;44330;51.360;6.686;2022-08-07T11:55:25;0.95;;;0.60;;
42662;SDS011;44330;51.360;6.686;2022-08-07T12:08:54;2.20;;;0.80;;
42662;SDS011;44330;51.360;6.686;2022-08-07T12:11:38;1.70;;;0.77;;
42662;SDS011;44330;51.360;6.686;2022-08-07T12:14:19;3.60;;;0.70;;
42662;SDS011;44330;51.360;6.686;2022-08-07T12:16:53;1.63;;;0.75;;
42662;SDS011;44330;51.360;6.686;2022-08-07T12:19:33;1.63;;;0.90;;
42662;SDS011;44330;51.360;6.686;2022-08-07T12:28:04;2.72;;;0.80;;
42662;SDS011;44330;51.360;6.686;2022-08-07T12:30:39;1.38;;;0.82;;
42662;SDS011;44330;51.360;6.686;2022-08-07T12:33:11;2.67;;;0.80;;
42662;SDS011;44330;51.360;6.686;2022-08-07T12:35:42;3.25;;;0.90;;
42662;SDS011;44330;51.360;6.686;2022-08-07T12:40:37;4.35;;;1.05;;
42662;SDS011;44330;51.360;6.686;2022-08-07T12:43:06;2.72;;;1.00;;
42662;SDS011;44330;51.360;6.686;2022-08-07T12:48:15;3.08;;;1.27;;
42662;SDS011;44330;51.360;6.686;2022-08-07T12:50:52;2.20;;;0.93;;
42662;SDS011;44330;51.360;6.686;2022-08-07T12:58:57;4.70;;;0.85;;
42662;SDS011;44330;51.360;6.686;2022-08-07T13:04:07;2.35;;;1.00;;
42662;SDS011;44330;51.360;6.686;2022-08-07T13:20:44;1.88;;;0.60;;
42662;SDS011;44330;51.360;6.686;2022-08-07T13:28:40;1.75;;;0.65;;
42662;SDS011;44330;51.360;6.686;2022-08-07T13:31:18;4.22;;;1.00;;
42662;SDS011;44330;51.360;6.686;2022-08-07T13:33:53;4.03;;;1.10;;
42662;SDS011;44330;51.360;6.686;2022-08-07T13:36:31;2.45;;;1.05;;
42662;SDS011;44330;51.360;6.686;2022-08-07T13:42:07;2.28;;;0.98;;
42662;SDS011;44330;51.360;6.686;2022-08-07T13:44:38;2.75;;;0.90;;
42662;SDS011;44330;51.360;6.686;2022-08-07T13:47:06;3.95;;;0.75;;
42662;SDS011;44330;51.360;6.686;2022-08-07T13:49:36;2.03;;;0.90;;
42662;SDS011;44330;51.360;6.686;2022-08-07T13:52:08;3.58;;;1.05;;
42662;SDS011;44330;51.360;6.686;2022-08-07T13:54:36;1.35;;;0.90;;
42662;SDS011;44330;51.360;6.686;2022-08-07T13:59:36;2.28;;;0.77;;
42662;SDS011;44330;51.360;6.686;2022-08-07T14:02:08;1.73;;;0.90;;
42662;SDS011;44330;51.360;6.686;2022-08-07T14:04:45;1.88;;;0.90;;
42662;SDS011;44330;51.360;6.686;2022-08-07T14:07:14;2.58;;;1.20;;
42662;SDS011;44330;51.360;6.686;2022-08-07T14:09:42;3.17;;;0.68;;
42662;SDS011;44330;51.360;6.686;2022-08-07T14:12:10;2.17;;;0.90;;
42662;SDS011;44330;51.360;6.686;2022-08-07T14:14:45;5.25;;;1.08;;
42662;SDS011;44330;51.360;6.686;2022-08-07T14:17:15;2.78;;;0.90;;
42662;SDS011;44330;51.360;6.686;2022-08-07T14:19:47;1.42;;;0.93;;
42662;SDS011;44330;51.360;6.686;2022-08-07T14:22:22;1.40;;;0.90;;
42662;SDS011;44330;51.360;6.686;2022-08-07T14:24:59;3.33;;;0.85;;
42662;SDS011;44330;51.360;6.686;2022-08-07T14:27:32;2.75;;;1.00;;
42662;SDS011;44330;51.360;6.686;2022-08-07T14:30:07;1.08;;;0.85;;
42662;SDS011;44330;51.360;6.686;2022-08-07T14:32:42;3.38;;;1.00;;
42662;SDS011;44330;51.360;6.686;2022-08-07T14:35:28;2.00;;;0.88;;
42662;SDS011;44330;51.360;6.686;2022-08-07T14:37:57;2.35;;;0.93;;
42662;SDS011;44330;51.360;6.686;2022-08-07T14:40:24;1.50;;;0.80;;
42662;SDS011;44330;51.360;6.686;2022-08-07T14:43:11;1.83;;;1.00;;
42662;SDS011;44330;51.360;6.686;2022-08-07T14:45:50;5.88;;;0.90;;
42662;SDS011;44330;51.360;6.686;2022-08-07T14:48:20;1.90;;;0.90;;
42662;SDS011;44330;51.360;6.686;2022-08-07T14:50:51;3.58;;;1.13;;
42662;SDS011;44330;51.360;6.686;2022-08-07T14:53:19;3.10;;;0.90;;
42662;SDS011;44330;51.360;6.686;2022-08-07T14:55:48;1.63;;;1.02;;
42662;SDS011;44330;51.360;6.686;2022-08-07T14:58:15;3.83;;;1.00;;
42662;SDS011;44330;51.360;6.686;2022-08-07T15:00:43;3.30;;;1.30;;
42662;SDS011;44330;51.360;6.686;2022-08-07T15:03:15;2.53;;;0.80;;
42662;SDS011;44330;51.360;6.686;2022-08-07T15:05:48;11.93;;;1.20;;
42662;SDS011;44330;51.360;6.686;2022-08-07T15:08:17;3.15;;;0.85;;
42662;SDS011;44330;51.360;6.686;2022-08-07T15:10:54;3.37;;;0.90;;
42662;SDS011;44330;51.360;6.686;2022-08-07T15:13:24;2.88;;;0.70;;
42662;SDS011;44330;51.360;6.686;2022-08-07T15:15:52;3.92;;;0.80;;
42662;SDS011;44330;51.360;6.686;2022-08-07T15:18:30;1.77;;;1.25;;
42662;SDS011;44330;51.360;6.686;2022-08-07T15:21:01;5.80;;;1.15;;
42662;SDS011;44330;51.360;6.686;2022-08-07T15:23:30;2.88;;;0.85;;
42662;SDS011;44330;51.360;6.686;2022-08-07T15:25:58;1.60;;;1.00;;
42662;SDS011;44330;51.360;6.686;2022-08-07T15:28:26;4.63;;;0.90;;
42662;SDS011;44330;51.360;6.686;2022-08-07T15:30:54;1.83;;;0.90;;
42662;SDS011;44330;51.360;6.686;2022-08-07T15:33:26;2.85;;;1.00;;
42662;SDS011;44330;51.360;6.686;2022-08-07T15:35:53;2.45;;;1.00;;
42662;SDS011;44330;51.360;6.686;2022-08-07T15:38:25;3.05;;;0.90;;
42662;SDS011;44330;51.360;6.686;2022-08-07T15:40:55;2.30;;;0.90;;
42662;SDS011;44330;51.360;6.686;2022-08-07T15:43:24;1.65;;;0.73;;
42662;SDS011;44330;51.360;6.686;2022-08-07T15:45:51;2.95;;;1.10;;
42662;SDS011;44330;51.360;6.686;2022-08-07T15:48:30;3.25;;;0.95;;
42662;SDS011;44330;51.360;6.686;2022-08-07T15:51:04;4.93;;;1.17;;
42662;SDS011;44330;51.360;6.686;2022-08-07T15:53:42;4.22;;;1.58;;
42662;SDS011;44330;51.360;6.686;2022-08-07T15:56:16;3.80;;;1.00;;
42662;SDS011;44330;51.360;6.686;2022-08-07T16:01:12;5.00;;;0.90;;
42662;SDS011;44330;51.360;6.686;2022-08-07T16:03:52;3.40;;;1.00;;
42662;SDS011;44330;51.360;6.686;2022-08-07T16:06:27;4.28;;;1.13;;
42662;SDS011;44330;51.360;6.686;2022-08-07T16:08:58;3.67;;;0.98;;
42662;SDS011;44330;51.360;6.686;2022-08-07T16:17:47;1.42;;;0.70;;
42662;SDS011;44330;51.360;6.686;2022-08-07T16:31:31;3.85;;;1.40;;
42662;SDS011;44330;51.360;6.686;2022-08-07T16:45:22;15.00;;;6.50;;
42662;SDS011;44330;51.360;6.686;2022-08-07T16:54:06;21.88;;;13.05;;
42662;SDS011;44330;51.360;6.686;2022-08-07T16:59:55;3.22;;;1.30;;
42662;SDS011;44330;51.360;6.686;2022-08-07T17:07:46;3.47;;;1.10;;
42662;SDS011;44330;51.360;6.686;2022-08-07T17:10:30;10.75;;;5.45;;
42662;SDS011;44330;51.360;6.686;2022-08-07T17:16:08;4.30;;;2.25;;
42662;SDS011;44330;51.360;6.686;2022-08-07T17:18:38;2.15;;;1.50;;
42662;SDS011;44330;51.360;6.686;2022-08-07T17:21:16;2.75;;;1.08;;
42662;SDS011;44330;51.360;6.686;2022-08-07T17:26:19;3.35;;;1.23;;
42662;SDS011;44330;51.360;6.686;2022-08-07T17:31:48;1.05;;;0.95;;
42662;SDS011;44330;51.360;6.686;2022-08-07T17:34:26;0.98;;;0.98;;
42662;SDS011;44330;51.360;6.686;2022-08-07T17:37:00;2.42;;;1.42;;
42662;SDS011;44330;51.360;6.686;2022-08-07T17:39:43;2.53;;;1.10;;
42662;SDS011;44330;51.360;6.686;2022-08-07T17:45:02;3.58;;;1.33;;
42662;SDS011;44330;51.360;6.686;2022-08-07T17:47:46;2.30;;;0.90;;
42662;SDS011;44330;51.360;6.686;2022-08-07T17:51:03;3.55;;;1.10;;
42662;SDS011;44330;51.360;6.686;2022-08-07T17:53:26;3.58;;;1.20;;
42662;SDS011;44330;51.360;6.686;2022-08-07T17:56:08;2.80;;;1.00;;
42662;SDS011;44330;51.360;6.686;2022-08-07T17:58:44;2.78;;;1.20;;
42662;SDS011;44330;51.360;6.686;2022-08-07T18:01:29;2.78;;;1.40;;
42662;SDS011;44330;51.360;6.686;2022-08-07T18:04:40;5.30;;;0.98;;
42662;SDS011;44330;51.360;6.686;2022-08-07T18:09:29;3.33;;;1.10;;
42662;SDS011;44330;51.360;6.686;2022-08-07T18:12:16;3.97;;;1.23;;
42662;SDS011;44330;51.360;6.686;2022-08-07T18:15:02;2.03;;;1.33;;
42662;SDS011;44330;51.360;6.686;2022-08-07T18:20:05;1.95;;;1.40;;
42662;SDS011;44330;51.360;6.686;2022-08-07T18:22:37;4.28;;;1.20;;
42662;SDS011;44330;51.360;6.686;2022-08-07T18:25:13;2.90;;;1.08;;
42662;SDS011;44330;51.360;6.686;2022-08-07T18:27:58;3.13;;;1.17;;
42662;SDS011;44330;51.360;6.686;2022-08-07T18:30:37;2.70;;;1.50;;
42662;SDS011;44330;51.360;6.686;2022-08-07T18:38:59;2.25;;;0.95;;
42662;SDS011;44330;51.360;6.686;2022-08-07T18:41:43;4.20;;;1.88;;
42662;SDS011;44330;51.360;6.686;2022-08-07T18:46:59;1.27;;;1.00;;
42662;SDS011;44330;51.360;6.686;2022-08-07T18:52:39;2.15;;;1.30;;
42662;SDS011;44330;51.360;6.686;2022-08-07T19:03:42;1.35;;;0.95;;
42662;SDS011;44330;51.360;6.686;2022-08-07T19:06:16;4.25;;;1.38;;
42662;SDS011;44330;51.360;6.686;2022-08-07T19:08:49;3.53;;;1.38;;